createdAt,value
2022-08-17T00:00:42.674Z,7.13
2022-08-17T00:02:59.676Z,7.10
2022-08-17T00:05:04.205Z,7.27
2022-08-17T00:07:05.816Z,8.00
2022-08-17T00:09:07.456Z,8.00
2022-08-17T00:11:15.251Z,7.53
2022-08-17T00:13:22.606Z,8.50
2022-08-17T00:15:26.791Z,8.57
2022-08-17T00:17:28.519Z,7.47
2022-08-17T00:19:30.165Z,7.47
2022-08-17T00:21:44.672Z,7.23
2022-08-17T00:23:54.999Z,7.77
2022-08-17T00:25:56.611Z,7.40
2022-08-17T00:27:58.198Z,6.93
2022-08-17T00:29:59.849Z,7.37
2022-08-17T00:33:23.148Z,6.90
2022-08-17T00:34:27.899Z,7.20
2022-08-17T00:36:30.041Z,7.30
2022-08-17T00:38:32.682Z,7.37
2022-08-17T00:40:40.611Z,7.03
2022-08-17T00:42:47.956Z,7.20
2022-08-17T00:44:49.671Z,6.60
2022-08-17T00:46:51.336Z,6.70
2022-08-17T00:48:54.684Z,7.90
2022-08-17T00:51:01.462Z,6.50
2022-08-17T00:53:04.441Z,6.77
2022-08-17T00:55:07.272Z,6.87
2022-08-17T00:57:12.618Z,6.83
2022-08-17T00:59:19.313Z,6.87
2022-08-17T01:01:22.146Z,6.30
2022-08-17T01:03:25.732Z,6.87
2022-08-17T01:05:31.822Z,7.40
2022-08-17T01:07:34.385Z,7.37
2022-08-17T01:09:40.310Z,7.80
2022-08-17T01:11:41.950Z,7.50
2022-08-17T01:13:45.055Z,7.27
2022-08-17T01:15:57.329Z,6.07
2022-08-17T01:17:58.907Z,7.60
2022-08-17T01:20:00.742Z,7.63
2022-08-17T01:22:08.989Z,7.73
2022-08-17T01:24:11.958Z,6.63
2022-08-17T01:26:13.734Z,6.87
2022-08-17T01:28:33.614Z,10.17
2022-08-17T01:30:57.375Z,10.10
2022-08-17T01:32:59.762Z,8.17
2022-08-17T01:35:01.557Z,8.93
2022-08-17T01:37:03.381Z,8.60
2022-08-17T01:39:06.684Z,7.60
2022-08-17T01:41:14.227Z,8.47
2022-08-17T01:43:19.619Z,7.40
2022-08-17T01:45:24.497Z,7.77
2022-08-17T01:47:26.067Z,6.83
2022-08-17T01:49:27.875Z,7.13
2022-08-17T01:51:31.402Z,6.80
2022-08-17T01:53:36.524Z,7.43
2022-08-17T01:55:42.757Z,8.10
2022-08-17T01:57:46.035Z,7.33
2022-08-17T01:59:47.691Z,7.10
2022-08-17T02:01:49.329Z,6.90
2022-08-17T02:03:54.561Z,7.20
2022-08-17T02:06:05.249Z,6.97
2022-08-17T02:08:06.966Z,7.77
2022-08-17T02:10:16.716Z,7.10
2022-08-17T02:12:47.444Z,7.50
2022-08-17T02:14:45.105Z,8.00
2022-08-17T02:16:46.723Z,7.40
2022-08-17T02:18:48.362Z,7.60
2022-08-17T02:20:50.033Z,7.77
2022-08-17T02:22:51.930Z,8.07
2022-08-17T02:25:00.887Z,8.03
2022-08-17T02:27:03.797Z,8.53
2022-08-17T02:29:05.393Z,8.17
2022-08-17T02:31:11.075Z,8.50
2022-08-17T02:33:12.680Z,9.20
2022-08-17T02:35:14.935Z,9.17
2022-08-17T02:37:21.100Z,8.40
2022-08-17T02:39:22.719Z,8.03
2022-08-17T02:41:24.306Z,8.47
2022-08-17T02:43:26.571Z,8.50
2022-08-17T02:45:28.180Z,8.33
2022-08-17T02:47:31.140Z,8.93
2022-08-17T02:49:32.720Z,9.40
2022-08-17T02:51:34.450Z,9.00
2022-08-17T02:53:36.311Z,8.60
2022-08-17T02:55:41.309Z,8.60
2022-08-17T02:57:42.988Z,8.80
2022-08-17T02:59:48.920Z,8.50
2022-08-17T03:01:51.020Z,8.60
2022-08-17T03:03:54.023Z,9.77
2022-08-17T03:05:55.633Z,9.23
2022-08-17T03:07:57.342Z,8.93
2022-08-17T03:09:58.983Z,9.17
2022-08-17T03:12:06.451Z,8.70
2022-08-17T03:14:08.048Z,8.60
2022-08-17T03:16:09.869Z,8.53
2022-08-17T03:18:19.384Z,9.30
2022-08-17T03:20:31.403Z,10.27
2022-08-17T03:22:38.397Z,9.47
2022-08-17T03:24:40.280Z,9.00
2022-08-17T03:26:41.818Z,9.30
2022-08-17T03:28:43.453Z,9.70
2022-08-17T03:30:45.094Z,10.00
2022-08-17T03:32:49.378Z,9.47
2022-08-17T03:34:51.149Z,10.20
2022-08-17T03:36:54.103Z,10.03
2022-08-17T03:38:55.645Z,9.23
2022-08-17T03:40:59.894Z,9.60
2022-08-17T03:43:06.801Z,8.63
2022-08-17T03:45:15.381Z,8.87
2022-08-17T03:47:17.125Z,9.30
2022-08-17T03:49:18.721Z,8.80
2022-08-17T03:51:23.362Z,8.33
2022-08-17T03:53:26.277Z,9.10
2022-08-17T03:55:36.068Z,7.70
2022-08-17T03:57:38.180Z,9.13
2022-08-17T03:59:39.753Z,7.70
2022-08-17T04:01:43.290Z,8.67
2022-08-17T04:03:47.741Z,9.03
2022-08-17T04:05:49.415Z,9.43
2022-08-17T04:07:51.032Z,8.80
2022-08-17T04:09:54.279Z,10.00
2022-08-17T04:12:02.392Z,9.33
2022-08-17T04:14:07.254Z,9.70
2022-08-17T04:16:08.832Z,9.20
2022-08-17T04:18:10.934Z,9.53
2022-08-17T04:20:14.533Z,10.80
2022-08-17T04:22:32.024Z,10.03
2022-08-17T04:24:35.628Z,10.23
2022-08-17T04:26:53.484Z,10.93
2022-08-17T04:28:56.794Z,9.97
2022-08-17T04:31:01.232Z,9.73
2022-08-17T04:33:07.297Z,10.27
2022-08-17T04:35:09.494Z,11.00
2022-08-17T04:37:11.055Z,10.50
2022-08-17T04:39:12.704Z,11.20
2022-08-17T04:41:15.187Z,11.10
2022-08-17T04:43:22.014Z,11.93
2022-08-17T04:45:23.594Z,10.10
2022-08-17T04:47:25.703Z,10.50
2022-08-17T04:49:27.349Z,12.17
2022-08-17T04:51:31.324Z,12.20
2022-08-17T04:53:33.145Z,12.47
2022-08-17T04:55:34.828Z,12.67
2022-08-17T04:57:39.313Z,14.23
2022-08-17T04:59:43.528Z,12.23
2022-08-17T05:01:48.046Z,14.27
2022-08-17T05:03:49.685Z,13.83
2022-08-17T05:05:51.316Z,16.33
2022-08-17T05:07:52.964Z,13.30
2022-08-17T05:09:54.528Z,13.30
2022-08-17T05:11:59.936Z,12.73
2022-08-17T05:14:01.594Z,13.27
2022-08-17T05:16:05.064Z,13.47
2022-08-17T05:18:07.279Z,12.77
2022-08-17T05:20:09.907Z,13.40
2022-08-17T05:22:11.535Z,12.90
2022-08-17T05:24:38.352Z,14.37
2022-08-17T05:26:36.448Z,13.63
2022-08-17T05:28:38.183Z,14.60
2022-08-17T05:30:42.459Z,13.13
2022-08-17T05:32:53.143Z,15.40
2022-08-17T05:34:56.084Z,13.80
2022-08-17T05:36:57.938Z,16.57
2022-08-17T05:38:59.528Z,13.27
2022-08-17T05:41:04.626Z,12.27
2022-08-17T05:43:09.464Z,12.30
2022-08-17T05:45:11.633Z,11.50
2022-08-17T05:47:13.467Z,11.27
2022-08-17T05:49:18.819Z,10.53
2022-08-17T05:51:51.221Z,9.23
2022-08-17T05:54:00.540Z,9.87
2022-08-17T05:56:30.264Z,11.87
2022-08-17T05:58:42.025Z,9.90
2022-08-17T06:00:50.881Z,9.27
2022-08-17T06:03:11.945Z,8.60
2022-08-17T06:05:27.673Z,8.60
2022-08-17T06:07:35.510Z,10.27
2022-08-17T06:09:43.661Z,9.17
2022-08-17T06:11:53.683Z,10.00
2022-08-17T06:14:18.452Z,8.87
2022-08-17T06:16:33.740Z,8.00
2022-08-17T06:18:43.967Z,8.30
2022-08-17T06:20:52.237Z,9.30
2022-08-17T06:23:02.099Z,9.50
2022-08-17T06:25:10.191Z,9.57
2022-08-17T06:27:18.333Z,9.67
2022-08-17T06:29:38.537Z,9.13
2022-08-17T06:31:40.681Z,8.30
2022-08-17T06:33:42.457Z,10.27
2022-08-17T06:35:55.799Z,9.70
2022-08-17T06:38:09.442Z,10.07
2022-08-17T06:40:56.146Z,10.90
2022-08-17T06:43:22.976Z,9.57
2022-08-17T06:45:30.172Z,9.57
2022-08-17T06:47:36.026Z,9.70
2022-08-17T06:49:47.322Z,9.40
2022-08-17T06:52:03.801Z,10.20
2022-08-17T06:54:10.937Z,10.43
2022-08-17T06:56:20.364Z,10.37
2022-08-17T06:58:24.146Z,9.97
2022-08-17T07:00:36.931Z,8.80
2022-08-17T07:02:51.481Z,9.53
2022-08-17T07:04:54.754Z,9.67
2022-08-17T07:07:03.161Z,10.03
2022-08-17T07:09:10.051Z,9.40
2022-08-17T07:11:15.339Z,8.80
2022-08-17T07:13:33.996Z,8.87
2022-08-17T07:15:42.099Z,10.43
2022-08-17T07:17:48.015Z,9.50
2022-08-17T07:20:06.509Z,10.30
2022-08-17T07:22:21.225Z,9.83
2022-08-17T07:24:33.134Z,9.33
2022-08-17T07:26:34.972Z,9.80
2022-08-17T07:28:36.946Z,11.97
2022-08-17T07:30:47.447Z,11.27
2022-08-17T07:32:52.772Z,11.67
2022-08-17T07:35:12.809Z,11.70
2022-08-17T07:37:19.206Z,11.63
2022-08-17T07:39:27.015Z,11.50
2022-08-17T07:41:57.646Z,13.00
2022-08-17T07:43:53.626Z,11.50
2022-08-17T07:46:14.233Z,13.50
2022-08-17T07:48:20.301Z,11.10
2022-08-17T07:50:28.754Z,10.83
2022-08-17T07:52:48.276Z,11.93
2022-08-17T07:54:53.979Z,11.40
2022-08-17T07:56:57.321Z,11.53
2022-08-17T07:59:07.433Z,12.33
2022-08-17T08:01:11.905Z,11.50
2022-08-17T08:03:24.645Z,10.83
2022-08-17T08:05:49.243Z,11.50
2022-08-17T08:07:56.850Z,11.67
2022-08-17T08:10:06.598Z,11.30
2022-08-17T08:12:33.546Z,13.00
2022-08-17T08:14:35.527Z,12.30
2022-08-17T08:16:37.191Z,11.57
2022-08-17T08:18:54.210Z,11.97
2022-08-17T08:21:01.148Z,12.00
2022-08-17T08:23:14.733Z,11.63
2022-08-17T08:25:25.352Z,12.30
2022-08-17T08:27:41.807Z,11.83
2022-08-17T08:29:51.610Z,11.50
2022-08-17T08:32:01.273Z,12.03
2022-08-17T08:34:59.016Z,11.00
2022-08-17T08:36:58.125Z,11.13
2022-08-17T08:39:17.638Z,10.57
2022-08-17T08:41:36.737Z,10.13
2022-08-17T08:43:52.814Z,10.30
2022-08-17T08:46:02.463Z,10.43
2022-08-17T08:48:45.847Z,10.17
2022-08-17T08:50:49.184Z,10.67
2022-08-17T08:53:08.516Z,9.80
2022-08-17T08:55:20.851Z,10.50
2022-08-17T08:57:33.763Z,10.53
2022-08-17T08:59:44.306Z,9.83
2022-08-17T09:01:58.464Z,12.30
2022-08-17T09:04:25.873Z,10.63
2022-08-17T09:06:39.200Z,11.77
2022-08-17T09:08:54.031Z,10.20
2022-08-17T09:11:05.074Z,10.57
2022-08-17T09:13:16.313Z,10.57
2022-08-17T09:15:21.808Z,10.27
2022-08-17T09:17:35.461Z,10.10
2022-08-17T09:19:44.646Z,9.90
2022-08-17T09:21:51.760Z,9.50
2022-08-17T09:24:00.966Z,8.67
2022-08-17T09:26:11.826Z,10.30
2022-08-17T09:28:18.937Z,9.37
2022-08-17T09:30:20.898Z,9.17
2022-08-17T09:32:36.676Z,9.90
2022-08-17T09:34:48.376Z,9.40
2022-08-17T09:37:01.008Z,10.83
2022-08-17T09:39:07.765Z,10.40
2022-08-17T09:41:19.700Z,8.83
2022-08-17T09:43:33.944Z,9.83
2022-08-17T09:45:41.707Z,9.80
2022-08-17T09:47:50.356Z,11.03
2022-08-17T09:49:56.626Z,13.57
2022-08-17T09:52:03.371Z,10.40
2022-08-17T09:54:38.516Z,10.27
2022-08-17T09:57:05.888Z,11.00
2022-08-17T09:59:43.043Z,10.53
2022-08-17T10:01:54.251Z,10.60
2022-08-17T10:04:10.625Z,10.60
2022-08-17T10:06:21.971Z,10.50
2022-08-17T10:08:36.207Z,10.53
2022-08-17T10:10:52.374Z,10.60
2022-08-17T10:13:06.063Z,12.63
2022-08-17T10:18:34.608Z,10.00
2022-08-17T10:20:46.413Z,11.33
2022-08-17T10:22:54.956Z,10.23
2022-08-17T10:25:21.807Z,10.97
2022-08-17T10:27:32.320Z,11.50
2022-08-17T10:29:49.152Z,10.30
2022-08-17T10:31:57.853Z,11.00
2022-08-17T10:34:21.142Z,14.27
2022-08-17T10:36:32.892Z,13.30
2022-08-17T10:38:39.843Z,13.43
2022-08-17T10:40:48.239Z,11.30
2022-08-17T10:42:56.714Z,13.10
2022-08-17T10:45:05.293Z,11.93
2022-08-17T10:47:09.016Z,10.90
2022-08-17T10:49:32.263Z,11.40
2022-08-17T10:51:37.095Z,11.97
2022-08-17T10:53:52.636Z,11.20
2022-08-17T10:56:38.176Z,11.80
2022-08-17T10:58:47.319Z,11.70
2022-08-17T11:01:08.121Z,10.20
2022-08-17T11:03:18.601Z,10.13
2022-08-17T11:05:44.118Z,9.70
2022-08-17T11:08:04.563Z,9.67
2022-08-17T11:10:21.761Z,9.57
2022-08-17T11:12:37.672Z,10.30
2022-08-17T11:14:55.176Z,10.00
2022-08-17T11:17:15.482Z,14.90
2022-08-17T11:19:55.735Z,12.87
2022-08-17T11:22:17.072Z,10.87
2022-08-17T11:24:21.427Z,11.10
2022-08-17T11:26:28.219Z,10.60
2022-08-17T11:28:32.655Z,10.80
2022-08-17T11:30:45.942Z,10.63
2022-08-17T11:32:54.576Z,9.63
2022-08-17T11:35:08.575Z,10.17
2022-08-17T11:37:36.249Z,10.80
2022-08-17T11:40:28.577Z,10.60
2022-08-17T11:42:51.817Z,10.60
2022-08-17T11:44:57.813Z,10.00
2022-08-17T11:47:11.087Z,8.60
2022-08-17T11:49:20.665Z,9.70
2022-08-17T11:51:24.276Z,9.30
2022-08-17T11:54:21.450Z,9.63
2022-08-17T11:56:41.179Z,9.30
2022-08-17T11:58:44.791Z,8.57
2022-08-17T12:00:55.953Z,10.40
2022-08-17T12:03:36.011Z,8.70
2022-08-17T12:05:39.273Z,9.70
2022-08-17T12:07:44.428Z,9.53
2022-08-17T12:09:50.830Z,8.47
2022-08-17T12:12:12.481Z,10.40
2022-08-17T12:14:24.247Z,9.97
2022-08-17T12:16:31.078Z,9.40
2022-08-17T12:18:36.181Z,9.23
2022-08-17T12:20:45.080Z,9.77
2022-08-17T12:22:58.528Z,10.10
2022-08-17T12:25:08.782Z,10.60
2022-08-17T12:27:13.182Z,10.30
2022-08-17T12:29:18.492Z,10.33
2022-08-17T12:31:46.232Z,11.43
2022-08-17T12:33:49.062Z,10.40
2022-08-17T12:35:59.652Z,11.93
2022-08-17T12:38:03.234Z,10.80
2022-08-17T12:40:16.940Z,10.97
2022-08-17T12:42:23.844Z,10.83
2022-08-17T12:44:28.795Z,10.03
2022-08-17T12:46:32.853Z,10.53
2022-08-17T12:48:35.162Z,9.97
2022-08-17T12:50:38.996Z,9.23
2022-08-17T12:52:43.511Z,10.33
2022-08-17T12:54:51.026Z,10.40
2022-08-17T12:56:53.723Z,9.07
2022-08-17T12:58:55.523Z,8.70
2022-08-17T13:01:02.813Z,8.00
2022-08-17T13:03:06.923Z,8.10
2022-08-17T13:05:16.884Z,9.50
2022-08-17T13:07:31.267Z,8.30
2022-08-17T13:09:40.354Z,8.20
2022-08-17T13:11:48.409Z,8.10
2022-08-17T13:13:52.202Z,8.90
2022-08-17T13:15:56.851Z,8.20
2022-08-17T13:18:03.100Z,8.30
2022-08-17T13:20:13.715Z,9.50
2022-08-17T13:22:15.575Z,8.63
2022-08-17T13:24:20.060Z,9.40
2022-08-17T13:26:28.195Z,8.77
2022-08-17T13:28:35.810Z,8.67
2022-08-17T13:30:38.187Z,7.87
2022-08-17T13:32:44.263Z,8.50
2022-08-17T13:35:13.016Z,10.17
2022-08-17T13:37:30.642Z,8.57
2022-08-17T13:39:41.707Z,7.80
2022-08-17T13:41:46.785Z,10.13
2022-08-17T13:43:48.584Z,9.90
2022-08-17T13:45:52.627Z,9.43
2022-08-17T13:48:05.527Z,8.60
2022-08-17T13:50:20.301Z,9.00
2022-08-17T13:52:37.983Z,8.23
2022-08-17T13:54:40.772Z,8.40
2022-08-17T13:56:57.036Z,8.97
2022-08-17T13:59:01.178Z,9.30
2022-08-17T14:01:31.208Z,6.90
2022-08-17T14:03:32.867Z,8.83
2022-08-17T14:05:38.270Z,6.80
2022-08-17T14:07:40.067Z,5.93
2022-08-17T14:09:49.941Z,6.73
2022-08-17T14:11:54.498Z,6.63
2022-08-17T14:13:56.053Z,5.87
2022-08-17T14:15:57.672Z,6.20
2022-08-17T14:17:59.732Z,7.30
2022-08-17T14:20:02.005Z,7.80
2022-08-17T14:22:06.392Z,7.93
2022-08-17T14:24:16.811Z,6.27
2022-08-17T14:26:18.437Z,6.40
2022-08-17T14:28:21.478Z,7.10
2022-08-17T14:30:24.990Z,7.47
2022-08-17T14:32:29.127Z,8.30
2022-08-17T14:34:30.760Z,8.17
2022-08-17T14:36:32.467Z,7.30
2022-08-17T14:38:34.128Z,7.30
2022-08-17T14:40:37.099Z,6.93
2022-08-17T14:42:42.306Z,7.47
2022-08-17T14:44:45.368Z,7.47
2022-08-17T14:46:47.032Z,7.60
2022-08-17T14:48:48.632Z,8.40
2022-08-17T14:50:50.414Z,9.50
2022-08-17T14:52:52.108Z,8.90
2022-08-17T14:54:53.742Z,7.67
2022-08-17T14:57:02.861Z,8.23
2022-08-17T14:59:17.210Z,8.30
2022-08-17T15:01:21.445Z,7.80
2022-08-17T15:03:23.256Z,8.60
2022-08-17T15:05:28.101Z,7.37
2022-08-17T15:07:30.307Z,6.50
2022-08-17T15:09:33.125Z,7.70
2022-08-17T15:11:38.746Z,8.40
2022-08-17T15:13:53.071Z,7.80
2022-08-17T15:15:55.757Z,7.70
2022-08-17T15:17:59.145Z,7.93
2022-08-17T15:20:00.941Z,7.77
2022-08-17T15:22:02.605Z,9.60
2022-08-17T15:24:05.794Z,7.30
2022-08-17T15:26:07.674Z,8.20
2022-08-17T15:28:09.606Z,8.03
2022-08-17T15:30:14.695Z,7.80
2022-08-17T15:32:26.055Z,7.77
2022-08-17T15:34:29.107Z,7.10
2022-08-17T15:36:31.607Z,7.60
2022-08-17T15:38:34.321Z,7.43
2022-08-17T15:40:37.701Z,8.90
2022-08-17T15:42:39.420Z,7.30
2022-08-17T15:44:41.080Z,8.10
2022-08-17T15:46:42.660Z,8.07
2022-08-17T15:48:47.602Z,9.33
2022-08-17T15:50:50.682Z,7.13
2022-08-17T15:52:58.249Z,8.00
2022-08-17T15:55:00.893Z,8.00
2022-08-17T15:57:02.502Z,8.43
2022-08-17T15:59:04.744Z,6.83
2022-08-17T16:01:16.992Z,7.57
2022-08-17T16:03:58.452Z,7.20
2022-08-17T16:05:51.109Z,7.97
2022-08-17T16:07:53.616Z,7.70
2022-08-17T16:09:55.433Z,7.77
2022-08-17T16:11:57.135Z,7.27
2022-08-17T16:13:58.794Z,8.03
2022-08-17T16:16:00.873Z,7.07
2022-08-17T16:18:02.965Z,7.07
2022-08-17T16:20:05.813Z,7.10
2022-08-17T16:22:11.370Z,7.23
2022-08-17T16:24:14.989Z,7.30
2022-08-17T16:26:17.753Z,7.60
2022-08-17T16:28:20.535Z,7.47
2022-08-17T16:30:27.233Z,6.93
2022-08-17T16:32:31.378Z,7.30
2022-08-17T16:34:34.367Z,7.30
2022-08-17T16:36:36.015Z,6.63
2022-08-17T16:38:39.193Z,7.10
2022-08-17T16:40:42.713Z,6.90
2022-08-17T16:42:45.911Z,6.80
2022-08-17T16:44:47.603Z,7.50
2022-08-17T16:46:49.461Z,7.53
2022-08-17T16:48:51.106Z,6.93
2022-08-17T16:51:03.207Z,7.37
2022-08-17T16:53:08.778Z,7.30
2022-08-17T16:55:13.462Z,7.07
2022-08-17T16:57:15.559Z,7.40
2022-08-17T16:59:29.966Z,8.00
2022-08-17T17:01:32.187Z,7.13
2022-08-17T17:03:34.755Z,7.37
2022-08-17T17:05:51.321Z,6.80
2022-08-17T17:08:03.529Z,7.30
2022-08-17T17:10:09.076Z,7.73
2022-08-17T17:12:18.123Z,7.67
2022-08-17T17:14:23.993Z,7.10
2022-08-17T17:16:34.843Z,7.30
2022-08-17T17:18:40.842Z,7.43
2022-08-17T17:20:49.610Z,6.90
2022-08-17T17:23:01.929Z,6.43
2022-08-17T17:25:11.478Z,7.70
2022-08-17T17:27:27.275Z,7.67
2022-08-17T17:29:47.930Z,6.60
2022-08-17T17:31:56.513Z,6.73
2022-08-17T17:34:03.142Z,6.80
2022-08-17T17:36:08.337Z,7.17
2022-08-17T17:38:14.274Z,7.47
2022-08-17T17:40:22.268Z,7.90
2022-08-17T17:42:30.576Z,7.90
2022-08-17T17:44:39.308Z,7.23
2022-08-17T17:46:44.479Z,6.90
2022-08-17T17:48:46.457Z,7.00
2022-08-17T17:50:54.785Z,6.40
2022-08-17T17:53:02.872Z,7.87
2022-08-17T17:55:17.710Z,7.67
2022-08-17T17:57:27.221Z,8.53
2022-08-17T17:59:45.205Z,7.67
2022-08-17T18:01:55.208Z,7.20
2022-08-17T18:04:20.581Z,8.33
2022-08-17T18:06:33.883Z,6.70
2022-08-17T18:08:57.645Z,7.70
2022-08-17T18:11:07.180Z,7.27
2022-08-17T18:13:16.660Z,7.30
2022-08-17T18:15:27.661Z,7.40
2022-08-17T18:17:29.329Z,8.33
2022-08-17T18:19:31.756Z,7.93
2022-08-17T18:21:37.447Z,7.80
2022-08-17T18:23:46.076Z,7.50
2022-08-17T18:25:50.338Z,7.97
2022-08-17T18:27:52.240Z,11.03
2022-08-17T18:29:58.343Z,8.33
2022-08-17T18:32:17.865Z,7.87
2022-08-17T18:34:46.022Z,7.40
2022-08-17T18:36:46.325Z,7.60
2022-08-17T18:38:48.017Z,8.70
2022-08-17T18:41:18.576Z,9.00
2022-08-17T18:43:26.380Z,10.60
2022-08-17T18:45:33.354Z,10.20
2022-08-17T18:47:50.944Z,9.30
2022-08-17T18:49:54.961Z,8.90
2022-08-17T18:52:10.497Z,7.87
2022-08-17T18:54:19.416Z,9.80
2022-08-17T18:56:29.922Z,10.77
2022-08-17T18:58:32.661Z,9.20
2022-08-17T19:00:37.606Z,10.10
2022-08-17T19:02:52.182Z,9.33
2022-08-17T19:05:10.270Z,9.73
2022-08-17T19:07:27.141Z,8.27
2022-08-17T19:09:33.814Z,9.57
2022-08-17T19:11:35.829Z,8.87
2022-08-17T19:13:42.672Z,10.33
2022-08-17T19:16:11.909Z,9.27
2022-08-17T19:18:21.046Z,8.70
2022-08-17T19:20:29.211Z,8.80
2022-08-17T19:22:43.350Z,9.10
2022-08-17T19:24:47.813Z,7.17
2022-08-17T19:26:56.590Z,9.33
2022-08-17T19:29:02.168Z,7.83
2022-08-17T19:31:14.641Z,7.70
2022-08-17T19:33:17.742Z,8.57
2022-08-17T19:35:23.565Z,7.20
2022-08-17T19:37:35.223Z,8.60
2022-08-17T19:39:47.605Z,8.63
2022-08-17T19:41:58.846Z,8.17
2022-08-17T19:44:28.515Z,9.23
2022-08-17T19:46:48.387Z,8.70
2022-08-17T19:49:02.118Z,11.10
2022-08-17T19:51:10.468Z,11.17
2022-08-17T19:53:22.530Z,11.70
2022-08-17T19:55:29.932Z,11.60
2022-08-17T19:57:42.805Z,10.67
2022-08-17T19:59:54.424Z,10.07
2022-08-17T20:02:01.072Z,9.30
2022-08-17T20:04:11.100Z,9.30
2022-08-17T20:06:14.192Z,9.27
2022-08-17T20:08:19.276Z,9.27
2022-08-17T20:10:28.374Z,10.27
2022-08-17T20:12:34.780Z,9.03
2022-08-17T20:14:41.598Z,8.47
2022-08-17T20:16:59.278Z,9.33
2022-08-17T20:19:11.162Z,9.00
2022-08-17T20:21:20.507Z,9.17
2022-08-17T20:23:34.947Z,8.57
2022-08-17T20:25:45.087Z,9.50
2022-08-17T20:27:51.399Z,7.90
2022-08-17T20:30:04.763Z,8.50
2022-08-17T20:32:19.070Z,8.37
2022-08-17T20:34:38.069Z,8.13
2022-08-17T20:36:58.072Z,9.13
2022-08-17T20:38:59.976Z,8.27
2022-08-17T20:41:12.741Z,9.60
2022-08-17T20:43:51.407Z,9.27
2022-08-17T20:46:09.129Z,8.90
2022-08-17T20:48:36.090Z,9.33
2022-08-17T20:50:46.869Z,9.47
2022-08-17T20:52:53.628Z,8.20
2022-08-17T20:54:56.563Z,9.00
2022-08-17T20:57:00.822Z,9.20
2022-08-17T20:59:02.615Z,9.17
2022-08-17T21:01:12.486Z,8.30
2022-08-17T21:03:50.148Z,8.80
2022-08-17T21:06:00.324Z,9.77
2022-08-17T21:08:13.489Z,8.03
2022-08-17T21:10:18.098Z,8.93
2022-08-17T21:12:44.677Z,8.90
2022-08-17T21:15:00.355Z,7.77
2022-08-17T21:17:37.431Z,8.30
2022-08-17T21:20:08.106Z,8.10
2022-08-17T21:22:25.987Z,8.50
2022-08-17T21:24:39.428Z,8.83
2022-08-17T21:26:50.286Z,8.67
2022-08-17T21:29:31.423Z,9.13
2022-08-17T21:31:34.319Z,8.90
2022-08-17T21:33:38.055Z,7.90
2022-08-17T21:35:49.200Z,7.90
2022-08-17T21:37:57.916Z,7.50
2022-08-17T21:40:16.030Z,7.53
2022-08-17T21:42:22.855Z,8.50
2022-08-17T21:44:32.076Z,6.90
2022-08-17T21:46:38.792Z,7.73
2022-08-17T21:48:42.844Z,8.00
2022-08-17T21:50:46.643Z,8.00
2022-08-17T21:52:49.828Z,7.90
2022-08-17T21:54:55.873Z,9.13
2022-08-17T21:56:59.571Z,8.50
2022-08-17T21:59:04.543Z,8.30
2022-08-17T22:01:27.817Z,8.13
2022-08-17T22:03:31.385Z,8.03
2022-08-17T22:05:35.100Z,8.57
2022-08-17T22:07:40.740Z,8.63
2022-08-17T22:09:48.127Z,8.63
2022-08-17T22:11:58.171Z,8.20
2022-08-17T22:14:00.689Z,8.57
2022-08-17T22:16:27.676Z,8.47
2022-08-17T22:18:31.630Z,7.70
2022-08-17T22:20:33.607Z,9.30
2022-08-17T22:22:38.647Z,9.67
2022-08-17T22:24:40.296Z,10.30
2022-08-17T22:27:04.551Z,7.27
2022-08-17T22:29:06.208Z,9.10
2022-08-17T22:31:09.553Z,9.30
2022-08-17T22:33:37.003Z,8.00
2022-08-17T22:35:40.799Z,9.20
2022-08-17T22:37:42.473Z,8.73
2022-08-17T22:39:44.193Z,10.67
2022-08-17T22:41:52.453Z,10.10
2022-08-17T22:43:57.003Z,9.60
2022-08-17T22:46:07.072Z,8.87
2022-08-17T22:48:08.805Z,9.20
2022-08-17T22:50:20.672Z,9.63
2022-08-17T22:52:32.142Z,9.10
2022-08-17T22:54:34.501Z,8.80
2022-08-17T22:56:37.112Z,9.60
2022-08-17T22:58:43.940Z,9.10
2022-08-17T23:01:24.494Z,10.10
2022-08-17T23:03:26.985Z,10.10
2022-08-17T23:05:28.749Z,9.60
2022-08-17T23:07:30.765Z,11.17
2022-08-17T23:09:32.765Z,9.50
2022-08-17T23:11:49.380Z,10.80
2022-08-17T23:13:52.644Z,11.63
2022-08-17T23:15:54.212Z,12.20
2022-08-17T23:17:57.171Z,10.30
2022-08-17T23:20:00.475Z,11.47
2022-08-17T23:22:08.245Z,11.73
2022-08-17T23:24:10.760Z,10.20
2022-08-17T23:26:12.338Z,10.47
